sensor_id;sensor_type;location;lat;lon;timestamp;pressure;altitude;pressure_sealevel;temperature;humidity
10093;BME280;5085;48.092;11.484;2023-03-14T00:00:15;93689.66;;;9.96;100.00
10093;BME280;5085;48.092;11.484;2023-03-14T00:02:41;93688.06;;;9.95;100.00
10093;BME280;5085;48.092;11.484;2023-03-14T00:05:08;93681.09;;;9.94;100.00
10093;BME280;5085;48.092;11.484;2023-03-14T00:07:39;93657.19;;;9.93;100.00
10093;BME280;5085;48.092;11.484;2023-03-14T00:10:13;93670.63;;;9.93;100.00
10093;BME280;5085;48.092;11.484;2023-03-14T00:12:40;93677.72;;;9.89;100.00
10093;BME280;5085;48.092;11.484;2023-03-14T00:15:07;93678.53;;;9.89;100.00
10093;BME280;5085;48.092;11.484;2023-03-14T00:17:35;93689.28;;;9.89;100.00
10093;BME280;5085;48.092;11.484;2023-03-14T00:20:02;93691.34;;;9.92;100.00
10093;BME280;5085;48.092;11.484;2023-03-14T00:22:30;93675.72;;;9.94;100.00
10093;BME280;5085;48.092;11.484;2023-03-14T00:24:58;93673.19;;;9.98;100.00
10093;BME280;5085;48.092;11.484;2023-03-14T00:27:24;93663.41;;;10.02;100.00
10093;BME280;5085;48.092;11.484;2023-03-14T00:29:50;93664.72;;;10.05;100.00
10093;BME280;5085;48.092;11.484;2023-03-14T00:32:16;93675.47;;;10.05;100.00
10093;BME280;5085;48.092;11.484;2023-03-14T00:34:42;93673.09;;;10.03;100.00
10093;BME280;5085;48.092;11.484;2023-03-14T00:37:08;93686.22;;;10.05;100.00
10093;BME280;5085;48.092;11.484;2023-03-14T00:39:34;93686.22;;;10.05;100.00
10093;BME280;5085;48.092;11.484;2023-03-14T00:42:00;93682.44;;;10.06;100.00
10093;BME280;5085;48.092;11.484;2023-03-14T00:44:26;93696.38;;;10.08;100.00
10093;BME280;5085;48.092;11.484;2023-03-14T00:46:52;93696.84;;;10.10;100.00
10093;BME280;5085;48.092;11.484;2023-03-14T00:49:18;93693.88;;;10.11;100.00
10093;BME280;5085;48.092;11.484;2023-03-14T00:51:44;93699.41;;;10.15;100.00
10093;BME280;5085;48.092;11.484;2023-03-14T00:54:11;93695.31;;;10.17;100.00
10093;BME280;5085;48.092;11.484;2023-03-14T00:56:37;93690.72;;;10.18;100.00
10093;BME280;5085;48.092;11.484;2023-03-14T00:59:03;93698.47;;;10.19;100.00
10093;BME280;5085;48.092;11.484;2023-03-14T01:01:39;93703.56;;;10.21;100.00
10093;BME280;5085;48.092;11.484;2023-03-14T01:04:06;93721.63;;;10.20;100.00
10093;BME280;5085;48.092;11.484;2023-03-14T01:06:35;93717.03;;;10.21;100.00
10093;BME280;5085;48.092;11.484;2023-03-14T01:09:01;93731.59;;;10.20;100.00
10093;BME280;5085;48.092;11.484;2023-03-14T01:11:32;93735.34;;;10.19;100.00
10093;BME280;5085;48.092;11.484;2023-03-14T01:13:59;93738.69;;;10.16;100.00
10093;BME280;5085;48.092;11.484;2023-03-14T01:16:30;93737.06;;;10.15;100.00
10093;BME280;5085;48.092;11.484;2023-03-14T01:19:01;93726.44;;;10.10;100.00
10093;BME280;5085;48.092;11.484;2023-03-14T01:21:30;93724.34;;;10.07;100.00
10093;BME280;5085;48.092;11.484;2023-03-14T01:23:58;93727.69;;;10.04;100.00
10093;BME280;5085;48.092;11.484;2023-03-14T01:26:26;93733.34;;;10.02;100.00
10093;BME280;5085;48.092;11.484;2023-03-14T01:28:55;93736.34;;;10.00;100.00
10093;BME280;5085;48.092;11.484;2023-03-14T01:31:21;93733.00;;;9.95;100.00
10093;BME280;5085;48.092;11.484;2023-03-14T01:33:48;93737.38;;;9.91;100.00
10093;BME280;5085;48.092;11.484;2023-03-14T01:36:17;93738.91;;;9.83;100.00
10093;BME280;5085;48.092;11.484;2023-03-14T01:38:44;93740.13;;;9.77;100.00
10093;BME280;5085;48.092;11.484;2023-03-14T01:41:18;93749.06;;;9.72;100.00
10093;BME280;5085;48.092;11.484;2023-03-14T01:43:45;93732.28;;;9.67;100.00
10093;BME280;5085;48.092;11.484;2023-03-14T01:46:25;93746.94;;;9.61;100.00
10093;BME280;5085;48.092;11.484;2023-03-14T01:49:07;93750.81;;;9.55;100.00
10093;BME280;5085;48.092;11.484;2023-03-14T01:51:56;93756.31;;;9.49;100.00
10093;BME280;5085;48.092;11.484;2023-03-14T01:54:33;93757.22;;;9.45;100.00
10093;BME280;5085;48.092;11.484;2023-03-14T01:59:38;93757.13;;;9.36;100.00
10093;BME280;5085;48.092;11.484;2023-03-14T02:02:07;93755.03;;;9.33;100.00
10093;BME280;5085;48.092;11.484;2023-03-14T02:04:36;93742.19;;;9.30;100.00
10093;BME280;5085;48.092;11.484;2023-03-14T02:07:15;93748.00;;;9.23;100.00
10093;BME280;5085;48.092;11.484;2023-03-14T02:09:52;93750.00;;;9.18;100.00
10093;BME280;5085;48.092;11.484;2023-03-14T02:12:23;93733.16;;;9.12;100.00
10093;BME280;5085;48.092;11.484;2023-03-14T02:15:08;93745.59;;;9.08;100.00
10093;BME280;5085;48.092;11.484;2023-03-14T02:18:03;93747.91;;;9.01;100.00
10093;BME280;5085;48.092;11.484;2023-03-14T02:21:01;93746.91;;;8.97;100.00
10093;BME280;5085;48.092;11.484;2023-03-14T02:28:45;93698.69;;;8.78;100.00
10093;BME280;5085;48.092;11.484;2023-03-14T02:31:11;93675.16;;;8.75;100.00
10093;BME280;5085;48.092;11.484;2023-03-14T02:33:38;93667.69;;;8.72;100.00
10093;BME280;5085;48.092;11.484;2023-03-14T02:36:07;93655.66;;;8.69;100.00
10093;BME280;5085;48.092;11.484;2023-03-14T02:38:39;93644.72;;;8.66;100.00
10093;BME280;5085;48.092;11.484;2023-03-14T02:41:07;93630.81;;;8.64;100.00
10093;BME280;5085;48.092;11.484;2023-03-14T02:43:38;93614.72;;;8.64;100.00
10093;BME280;5085;48.092;11.484;2023-03-14T02:46:12;93610.75;;;8.61;100.00
10093;BME280;5085;48.092;11.484;2023-03-14T02:48:58;93608.38;;;8.60;100.00
10093;BME280;5085;48.092;11.484;2023-03-14T02:51:28;93600.91;;;8.57;100.00
10093;BME280;5085;48.092;11.484;2023-03-14T02:53:55;93592.97;;;8.51;100.00
10093;BME280;5085;48.092;11.484;2023-03-14T02:56:23;93592.47;;;8.49;100.00
10093;BME280;5085;48.092;11.484;2023-03-14T02:58:52;93599.53;;;8.45;100.00
10093;BME280;5085;48.092;11.484;2023-03-14T03:01:34;93582.16;;;8.43;100.00
10093;BME280;5085;48.092;11.484;2023-03-14T03:04:03;93567.75;;;8.39;100.00
10093;BME280;5085;48.092;11.484;2023-03-14T03:06:30;93577.13;;;8.36;100.00
10093;BME280;5085;48.092;11.484;2023-03-14T03:08:56;93578.81;;;8.32;100.00
10093;BME280;5085;48.092;11.484;2023-03-14T03:11:22;93577.84;;;8.28;100.00
10093;BME280;5085;48.092;11.484;2023-03-14T03:13:48;93598.28;;;8.24;100.00
10093;BME280;5085;48.092;11.484;2023-03-14T03:16:15;93595.72;;;8.19;100.00
10093;BME280;5085;48.092;11.484;2023-03-14T03:18:41;93581.63;;;8.13;100.00
10093;BME280;5085;48.092;11.484;2023-03-14T03:21:07;93595.91;;;8.09;100.00
10093;BME280;5085;48.092;11.484;2023-03-14T03:23:35;93603.44;;;8.07;100.00
10093;BME280;5085;48.092;11.484;2023-03-14T03:26:01;93592.81;;;8.01;100.00
10093;BME280;5085;48.092;11.484;2023-03-14T03:28:28;93588.34;;;7.97;100.00
10093;BME280;5085;48.092;11.484;2023-03-14T03:30:56;93590.56;;;7.95;100.00
10093;BME280;5085;48.092;11.484;2023-03-14T03:33:22;93590.03;;;7.93;100.00
10093;BME280;5085;48.092;11.484;2023-03-14T03:35:50;93598.88;;;7.93;100.00
10093;BME280;5085;48.092;11.484;2023-03-14T03:38:25;93582.59;;;7.90;100.00
10093;BME280;5085;48.092;11.484;2023-03-14T03:40:53;93580.50;;;7.87;100.00
10093;BME280;5085;48.092;11.484;2023-03-14T03:43:23;93585.16;;;7.81;100.00
10093;BME280;5085;48.092;11.484;2023-03-14T03:45:49;93583.88;;;7.79;100.00
10093;BME280;5085;48.092;11.484;2023-03-14T03:48:15;93583.16;;;7.73;100.00
10093;BME280;5085;48.092;11.484;2023-03-14T03:50:45;93586.44;;;7.70;100.00
10093;BME280;5085;48.092;11.484;2023-03-14T03:53:12;93582.44;;;7.67;100.00
10093;BME280;5085;48.092;11.484;2023-03-14T03:55:42;93580.06;;;7.66;100.00
10093;BME280;5085;48.092;11.484;2023-03-14T03:58:09;93579.88;;;7.62;100.00
10093;BME280;5085;48.092;11.484;2023-03-14T04:00:35;93585.53;;;7.61;100.00
10093;BME280;5085;48.092;11.484;2023-03-14T04:03:01;93577.28;;;7.57;100.00
10093;BME280;5085;48.092;11.484;2023-03-14T04:05:27;93580.53;;;7.54;100.00
10093;BME280;5085;48.092;11.484;2023-03-14T04:08:10;93576.56;;;7.51;100.00
10093;BME280;5085;48.092;11.484;2023-03-14T04:10:39;93581.72;;;7.48;100.00
10093;BME280;5085;48.092;11.484;2023-03-14T04:13:16;93582.00;;;7.46;100.00
10093;BME280;5085;48.092;11.484;2023-03-14T04:15:46;93580.72;;;7.44;100.00
10093;BME280;5085;48.092;11.484;2023-03-14T04:18:18;93577.53;;;7.42;100.00
10093;BME280;5085;48.092;11.484;2023-03-14T04:20:45;93566.13;;;7.36;100.00
10093;BME280;5085;48.092;11.484;2023-03-14T04:23:11;93564.22;;;7.37;100.00
10093;BME280;5085;48.092;11.484;2023-03-14T04:25:38;93567.47;;;7.34;100.00
10093;BME280;5085;48.092;11.484;2023-03-14T04:28:05;93566.19;;;7.31;100.00
10093;BME280;5085;48.092;11.484;2023-03-14T04:30:32;93559.22;;;7.30;100.00
10093;BME280;5085;48.092;11.484;2023-03-14T04:33:02;93554.50;;;7.27;100.00
10093;BME280;5085;48.092;11.484;2023-03-14T04:35:30;93545.16;;;7.24;100.00
10093;BME280;5085;48.092;11.484;2023-03-14T04:38:00;93540.59;;;7.25;100.00
10093;BME280;5085;48.092;11.484;2023-03-14T04:40:27;93546.50;;;7.22;100.00
10093;BME280;5085;48.092;11.484;2023-03-14T04:42:58;93552.97;;;7.21;100.00
10093;BME280;5085;48.092;11.484;2023-03-14T04:45:24;93552.47;;;7.19;100.00
10093;BME280;5085;48.092;11.484;2023-03-14T04:47:50;93546.81;;;7.20;100.00
10093;BME280;5085;48.092;11.484;2023-03-14T04:50:18;93538.56;;;7.17;100.00
10093;BME280;5085;48.092;11.484;2023-03-14T04:52:45;93522.50;;;7.17;100.00
10093;BME280;5085;48.092;11.484;2023-03-14T04:55:12;93524.69;;;7.15;100.00
10093;BME280;5085;48.092;11.484;2023-03-14T04:57:39;93507.06;;;7.14;100.00
10093;BME280;5085;48.092;11.484;2023-03-14T05:00:08;93496.63;;;7.12;100.00
10093;BME280;5085;48.092;11.484;2023-03-14T05:03:02;93495.06;;;7.11;100.00
10093;BME280;5085;48.092;11.484;2023-03-14T05:05:43;93502.28;;;7.11;100.00
10093;BME280;5085;48.092;11.484;2023-03-14T05:08:40;93515.16;;;7.09;100.00
10093;BME280;5085;48.092;11.484;2023-03-14T05:11:24;93501.78;;;7.09;100.00
10093;BME280;5085;48.092;11.484;2023-03-14T05:14:16;93504.44;;;7.09;100.00
10093;BME280;5085;48.092;11.484;2023-03-14T05:16:42;93494.53;;;7.09;100.00
10093;BME280;5085;48.092;11.484;2023-03-14T05:19:37;93496.41;;;7.09;100.00
10093;BME280;5085;48.092;11.484;2023-03-14T05:22:36;93496.72;;;7.07;100.00
10093;BME280;5085;48.092;11.484;2023-03-14T05:25:31;93501.28;;;7.07;100.00
10093;BME280;5085;48.092;11.484;2023-03-14T05:28:10;93501.28;;;7.07;100.00
10093;BME280;5085;48.092;11.484;2023-03-14T05:30:47;93499.69;;;7.06;100.00
10093;BME280;5085;48.092;11.484;2023-03-14T05:33:36;93497.28;;;7.04;100.00
10093;BME280;5085;48.092;11.484;2023-03-14T05:36:12;93509.31;;;7.07;100.00
10093;BME280;5085;48.092;11.484;2023-03-14T05:38:55;93495.13;;;7.06;100.00
10093;BME280;5085;48.092;11.484;2023-03-14T05:41:27;93495.94;;;7.07;100.00
10093;BME280;5085;48.092;11.484;2023-03-14T05:44:11;93495.94;;;7.07;100.00
10093;BME280;5085;48.092;11.484;2023-03-14T05:46:57;93495.94;;;7.07;100.00
10093;BME280;5085;48.092;11.484;2023-03-14T05:49:33;93491.38;;;7.07;100.00
10093;BME280;5085;48.092;11.484;2023-03-14T05:52:11;93492.94;;;7.08;100.00
10093;BME280;5085;48.092;11.484;2023-03-14T05:54:56;93491.38;;;7.07;100.00
10093;BME280;5085;48.092;11.484;2023-03-14T05:57:52;93486.00;;;7.07;100.00
10093;BME280;5085;48.092;11.484;2023-03-14T06:00:42;93481.66;;;7.11;100.00
10093;BME280;5085;48.092;11.484;2023-03-14T06:03:21;93486.72;;;7.13;100.00
10093;BME280;5085;48.092;11.484;2023-03-14T06:05:50;93484.03;;;7.13;100.00
10093;BME280;5085;48.092;11.484;2023-03-14T06:08:17;93479.47;;;7.13;100.00
10093;BME280;5085;48.092;11.484;2023-03-14T06:10:43;93486.44;;;7.14;100.00
10093;BME280;5085;48.092;11.484;2023-03-14T06:13:09;93468.19;;;7.16;100.00
10093;BME280;5085;48.092;11.484;2023-03-14T06:15:35;93468.97;;;7.17;100.00
10093;BME280;5085;48.092;11.484;2023-03-14T06:18:01;93480.69;;;7.21;100.00
10093;BME280;5085;48.092;11.484;2023-03-14T06:20:31;93474.44;;;7.25;100.00
10093;BME280;5085;48.092;11.484;2023-03-14T06:22:59;93474.66;;;7.29;100.00
10093;BME280;5085;48.092;11.484;2023-03-14T06:25:25;93470.59;;;7.32;100.00
10093;BME280;5085;48.092;11.484;2023-03-14T06:27:51;93465.16;;;7.37;100.00
10093;BME280;5085;48.092;11.484;2023-03-14T06:30:18;93458.44;;;7.39;100.00
10093;BME280;5085;48.092;11.484;2023-03-14T06:32:44;93446.63;;;7.40;100.00
10093;BME280;5085;48.092;11.484;2023-03-14T06:35:14;93442.25;;;7.44;100.00
10093;BME280;5085;48.092;11.484;2023-03-14T06:37:42;93434.13;;;7.49;100.00
10093;BME280;5085;48.092;11.484;2023-03-14T06:40:11;93430.75;;;7.58;100.00
10093;BME280;5085;48.092;11.484;2023-03-14T06:42:53;93432.75;;;7.66;100.00
10093;BME280;5085;48.092;11.484;2023-03-14T06:45:21;93441.16;;;7.73;100.00
10093;BME280;5085;48.092;11.484;2023-03-14T06:47:47;93437.00;;;7.81;100.00
10093;BME280;5085;48.092;11.484;2023-03-14T06:50:14;93441.66;;;7.89;100.00
10093;BME280;5085;48.092;11.484;2023-03-14T06:52:41;93451.47;;;7.93;100.00
10093;BME280;5085;48.092;11.484;2023-03-14T06:55:15;93462.38;;;7.97;100.00
10093;BME280;5085;48.092;11.484;2023-03-14T06:57:41;93464.47;;;8.00;100.00
10093;BME280;5085;48.092;11.484;2023-03-14T07:00:11;93469.72;;;8.05;100.00
10093;BME280;5085;48.092;11.484;2023-03-14T07:02:39;93468.03;;;8.09;100.00
10093;BME280;5085;48.092;11.484;2023-03-14T07:05:06;93468.81;;;8.10;100.00
10093;BME280;5085;48.092;11.484;2023-03-14T07:07:38;93482.75;;;8.12;100.00
10093;BME280;5085;48.092;11.484;2023-03-14T07:10:05;93483.53;;;8.12;100.00
10093;BME280;5085;48.092;11.484;2023-03-14T07:12:34;93480.84;;;8.12;100.00
10093;BME280;5085;48.092;11.484;2023-03-14T07:15:00;93478.44;;;8.11;100.00
10093;BME280;5085;48.092;11.484;2023-03-14T07:17:29;93480.34;;;8.10;100.00
10093;BME280;5085;48.092;11.484;2023-03-14T07:19:56;93473.59;;;8.13;100.00
10093;BME280;5085;48.092;11.484;2023-03-14T07:22:22;93470.72;;;8.09;100.00
10093;BME280;5085;48.092;11.484;2023-03-14T07:24:48;93472.00;;;8.12;100.00
10093;BME280;5085;48.092;11.484;2023-03-14T07:27:17;93478.66;;;8.14;100.00
10093;BME280;5085;48.092;11.484;2023-03-14T07:29:44;93479.63;;;8.18;100.00
10093;BME280;5085;48.092;11.484;2023-03-14T07:32:10;93476.06;;;8.23;100.00
10093;BME280;5085;48.092;11.484;2023-03-14T07:34:41;93477.25;;;8.31;100.00
10093;BME280;5085;48.092;11.484;2023-03-14T07:37:07;93472.53;;;8.36;100.00
10093;BME280;5085;48.092;11.484;2023-03-14T07:39:33;93463.63;;;8.41;100.00
10093;BME280;5085;48.092;11.484;2023-03-14T07:42:04;93467.00;;;8.46;100.00
10093;BME280;5085;48.092;11.484;2023-03-14T07:44:55;93466.56;;;8.53;100.00
10093;BME280;5085;48.092;11.484;2023-03-14T07:47:21;93460.19;;;8.63;100.00
10093;BME280;5085;48.092;11.484;2023-03-14T07:49:47;93464.34;;;8.69;100.00
10093;BME280;5085;48.092;11.484;2023-03-14T07:52:13;93460.34;;;8.80;100.00
10093;BME280;5085;48.092;11.484;2023-03-14T07:54:39;93456.28;;;8.91;100.00
10093;BME280;5085;48.092;11.484;2023-03-14T07:57:05;93457.44;;;8.99;100.00
10093;BME280;5085;48.092;11.484;2023-03-14T07:59:31;93455.63;;;9.08;100.00
10093;BME280;5085;48.092;11.484;2023-03-14T08:01:57;93464.69;;;9.21;100.00
10093;BME280;5085;48.092;11.484;2023-03-14T08:04:23;93467.13;;;9.31;100.00
10093;BME280;5085;48.092;11.484;2023-03-14T08:06:49;93465.28;;;9.40;100.00
10093;BME280;5085;48.092;11.484;2023-03-14T08:09:15;93466.63;;;9.51;100.00
10093;BME280;5085;48.092;11.484;2023-03-14T08:11:41;93463.34;;;9.63;100.00
10093;BME280;5085;48.092;11.484;2023-03-14T08:14:07;93462.75;;;9.75;100.00
10093;BME280;5085;48.092;11.484;2023-03-14T08:16:33;93460.41;;;9.82;100.00
10093;BME280;5085;48.092;11.484;2023-03-14T08:18:59;93468.34;;;9.87;100.00
10093;BME280;5085;48.092;11.484;2023-03-14T08:21:25;93468.38;;;9.96;100.00
10093;BME280;5085;48.092;11.484;2023-03-14T08:23:51;93464.28;;;9.98;100.00
10093;BME280;5085;48.092;11.484;2023-03-14T08:26:23;93468.84;;;10.07;100.00
10093;BME280;5085;48.092;11.484;2023-03-14T08:28:49;93469.53;;;10.12;100.00
10093;BME280;5085;48.092;11.484;2023-03-14T08:31:15;93471.28;;;10.17;100.00
10093;BME280;5085;48.092;11.484;2023-03-14T08:33:42;93473.63;;;10.18;100.00
10093;BME280;5085;48.092;11.484;2023-03-14T08:36:08;93473.81;;;10.22;100.00
10093;BME280;5085;48.092;11.484;2023-03-14T08:38:34;93485.38;;;10.22;100.00
10093;BME280;5085;48.092;11.484;2023-03-14T08:41:03;93490.44;;;10.24;100.00
10093;BME280;5085;48.092;11.484;2023-03-14T08:43:30;93498.03;;;10.22;100.00
10093;BME280;5085;48.092;11.484;2023-03-14T08:46:00;93503.41;;;10.22;100.00
10093;BME280;5085;48.092;11.484;2023-03-14T08:48:27;93505.50;;;10.25;100.00
10093;BME280;5085;48.092;11.484;2023-03-14T08:51:08;93509.28;;;10.24;100.00
10093;BME280;5085;48.092;11.484;2023-03-14T08:53:35;93506.59;;;10.24;100.00
10093;BME280;5085;48.092;11.484;2023-03-14T08:56:01;93511.97;;;10.24;100.00
10093;BME280;5085;48.092;11.484;2023-03-14T08:58:27;93509.00;;;10.25;100.00
10093;BME280;5085;48.092;11.484;2023-03-14T09:00:53;93504.56;;;10.30;100.00
10093;BME280;5085;48.092;11.484;2023-03-14T09:03:19;93507.59;;;10.37;100.00
10093;BME280;5085;48.092;11.484;2023-03-14T09:05:45;93513.28;;;10.44;100.00
10093;BME280;5085;48.092;11.484;2023-03-14T09:08:11;93519.47;;;10.53;100.00
10093;BME280;5085;48.092;11.484;2023-03-14T09:10:37;93517.91;;;10.61;100.00
10093;BME280;5085;48.092;11.484;2023-03-14T09:13:04;93515.25;;;10.69;100.00
10093;BME280;5085;48.092;11.484;2023-03-14T09:15:30;93518.88;;;10.73;100.00
10093;BME280;5085;48.092;11.484;2023-03-14T09:17:56;93513.66;;;10.77;100.00
10093;BME280;5085;48.092;11.484;2023-03-14T09:20:22;93514.00;;;10.75;100.00
10093;BME280;5085;48.092;11.484;2023-03-14T09:22:48;93516.84;;;10.70;100.00
10093;BME280;5085;48.092;11.484;2023-03-14T09:25:14;93513.66;;;10.60;100.00
10093;BME280;5085;48.092;11.484;2023-03-14T09:27:40;93510.16;;;10.50;100.00
10093;BME280;5085;48.092;11.484;2023-03-14T09:30:07;93513.78;;;10.46;100.00
10093;BME280;5085;48.092;11.484;2023-03-14T09:32:33;93511.41;;;10.44;100.00
10093;BME280;5085;48.092;11.484;2023-03-14T09:35:08;93509.03;;;10.43;100.00
10093;BME280;5085;48.092;11.484;2023-03-14T09:37:35;93503.31;;;10.44;100.00
10093;BME280;5085;48.092;11.484;2023-03-14T09:40:01;93495.13;;;10.49;100.00
10093;BME280;5085;48.092;11.484;2023-03-14T09:42:35;93502.56;;;10.61;100.00
10093;BME280;5085;48.092;11.484;2023-03-14T09:45:05;93497.50;;;10.68;100.00
10093;BME280;5085;48.092;11.484;2023-03-14T09:47:34;93494.81;;;10.77;100.00
10093;BME280;5085;48.092;11.484;2023-03-14T09:50:05;93494.19;;;10.89;100.00
10093;BME280;5085;48.092;11.484;2023-03-14T09:52:42;93500.03;;;10.99;100.00
10093;BME280;5085;48.092;11.484;2023-03-14T09:55:15;93489.59;;;11.07;100.00
10093;BME280;5085;48.092;11.484;2023-03-14T09:57:45;93485.47;;;11.18;100.00
10093;BME280;5085;48.092;11.484;2023-03-14T10:00:21;93479.91;;;11.32;100.00
10093;BME280;5085;48.092;11.484;2023-03-14T10:02:53;93482.88;;;11.47;100.00
10093;BME280;5085;48.092;11.484;2023-03-14T10:05:23;93488.22;;;11.65;100.00
10093;BME280;5085;48.092;11.484;2023-03-14T10:07:51;93484.38;;;11.83;94.88
10093;BME280;5085;48.092;11.484;2023-03-14T10:10:23;93487.03;;;12.00;91.47
10093;BME280;5085;48.092;11.484;2023-03-14T10:13:16;93484.25;;;12.18;85.48
10093;BME280;5085;48.092;11.484;2023-03-14T10:15:53;93478.28;;;12.33;83.38
10093;BME280;5085;48.092;11.484;2023-03-14T10:18:20;93481.28;;;12.82;79.56
10093;BME280;5085;48.092;11.484;2023-03-14T10:20:48;93482.41;;;14.01;72.67
10093;BME280;5085;48.092;11.484;2023-03-14T10:25:43;93464.50;;;17.52;55.12
10093;BME280;5085;48.092;11.484;2023-03-14T10:28:28;93454.41;;;17.94;51.65
10093;BME280;5085;48.092;11.484;2023-03-14T10:30:55;93464.47;;;17.90;50.55
10093;BME280;5085;48.092;11.484;2023-03-14T10:33:33;93465.25;;;17.91;50.04
10093;BME280;5085;48.092;11.484;2023-03-14T10:36:23;93461.84;;;18.20;48.70
10093;BME280;5085;48.092;11.484;2023-03-14T10:38:58;93470.59;;;18.56;47.10
10093;BME280;5085;48.092;11.484;2023-03-14T10:41:47;93462.38;;;18.76;46.12
10093;BME280;5085;48.092;11.484;2023-03-14T10:44:15;93474.16;;;18.60;44.61
10093;BME280;5085;48.092;11.484;2023-03-14T10:46:56;93465.69;;;17.93;45.84
10093;BME280;5085;48.092;11.484;2023-03-14T10:49:36;93468.41;;;17.15;47.07
10093;BME280;5085;48.092;11.484;2023-03-14T10:52:27;93475.31;;;16.27;48.69
10093;BME280;5085;48.092;11.484;2023-03-14T10:54:58;93459.78;;;15.80;50.60
10093;BME280;5085;48.092;11.484;2023-03-14T10:57:25;93468.97;;;15.75;51.82
10093;BME280;5085;48.092;11.484;2023-03-14T10:59:52;93479.34;;;15.85;51.92
10093;BME280;5085;48.092;11.484;2023-03-14T11:05:12;93469.09;;;15.94;51.70
10093;BME280;5085;48.092;11.484;2023-03-14T11:07:41;93483.34;;;15.75;52.60
10093;BME280;5085;48.092;11.484;2023-03-14T11:10:32;93485.19;;;15.43;53.12
10093;BME280;5085;48.092;11.484;2023-03-14T11:13:21;93477.75;;;15.00;52.63
10093;BME280;5085;48.092;11.484;2023-03-14T11:19:20;93475.22;;;15.07;53.52
10093;BME280;5085;48.092;11.484;2023-03-14T11:27:28;93469.69;;;15.88;49.11
10093;BME280;5085;48.092;11.484;2023-03-14T11:30:18;93463.16;;;16.20;48.52
10093;BME280;5085;48.092;11.484;2023-03-14T11:35:59;93456.59;;;17.27;46.25
10093;BME280;5085;48.092;11.484;2023-03-14T11:38:46;93453.50;;;17.87;45.11
10093;BME280;5085;48.092;11.484;2023-03-14T11:41:30;93450.72;;;17.64;45.25
10093;BME280;5085;48.092;11.484;2023-03-14T11:44:00;93444.09;;;17.22;46.23
10093;BME280;5085;48.092;11.484;2023-03-14T11:46:50;93452.13;;;16.80;47.81
10093;BME280;5085;48.092;11.484;2023-03-14T11:51:46;93450.28;;;15.86;49.46
10093;BME280;5085;48.092;11.484;2023-03-14T11:54:18;93443.78;;;15.46;50.32
10093;BME280;5085;48.092;11.484;2023-03-14T11:56:53;93449.59;;;15.33;51.01
10093;BME280;5085;48.092;11.484;2023-03-14T11:59:27;93439.53;;;15.33;50.50
10093;BME280;5085;48.092;11.484;2023-03-14T12:02:01;93450.84;;;15.35;51.54
10093;BME280;5085;48.092;11.484;2023-03-14T12:04:51;93454.88;;;15.41;51.09
10093;BME280;5085;48.092;11.484;2023-03-14T12:10:02;93449.81;;;15.40;50.34
10093;BME280;5085;48.092;11.484;2023-03-14T12:12:28;93444.44;;;15.28;51.00
10093;BME280;5085;48.092;11.484;2023-03-14T12:15:01;93466.41;;;15.10;51.41
10093;BME280;5085;48.092;11.484;2023-03-14T12:17:37;93441.63;;;14.96;51.89
10093;BME280;5085;48.092;11.484;2023-03-14T12:20:18;93445.16;;;14.84;52.85
10093;BME280;5085;48.092;11.484;2023-03-14T12:22:49;93452.28;;;14.77;53.31
10093;BME280;5085;48.092;11.484;2023-03-14T12:25:19;93447.44;;;14.70;53.11
10093;BME280;5085;48.092;11.484;2023-03-14T12:30:39;93454.13;;;14.36;52.79
10093;BME280;5085;48.092;11.484;2023-03-14T12:35:40;93459.78;;;14.55;53.95
10093;BME280;5085;48.092;11.484;2023-03-14T12:41:00;93456.94;;;14.64;51.85
10093;BME280;5085;48.092;11.484;2023-03-14T12:43:33;93461.09;;;14.73;53.01
10093;BME280;5085;48.092;11.484;2023-03-14T12:48:55;93457.25;;;15.15;52.79
10093;BME280;5085;48.092;11.484;2023-03-14T12:51:34;93481.03;;;16.06;50.77
10093;BME280;5085;48.092;11.484;2023-03-14T12:54:16;93470.88;;;16.18;49.47
10093;BME280;5085;48.092;11.484;2023-03-14T12:57:15;93468.34;;;15.66;50.17
10093;BME280;5085;48.092;11.484;2023-03-14T12:59:51;93477.81;;;15.16;51.40
10093;BME280;5085;48.092;11.484;2023-03-14T13:02:41;93486.63;;;14.60;52.45
10093;BME280;5085;48.092;11.484;2023-03-14T13:05:22;93485.72;;;14.19;54.33
10093;BME280;5085;48.092;11.484;2023-03-14T13:10:20;93483.44;;;14.09;55.05
10093;BME280;5085;48.092;11.484;2023-03-14T13:15:42;93488.78;;;14.55;54.17
10093;BME280;5085;48.092;11.484;2023-03-14T13:18:16;93504.88;;;14.39;54.75
10093;BME280;5085;48.092;11.484;2023-03-14T13:20:52;93493.38;;;14.17;55.01
10093;BME280;5085;48.092;11.484;2023-03-14T13:25:46;93493.97;;;13.65;57.48
10093;BME280;5085;48.092;11.484;2023-03-14T13:28:13;93515.00;;;13.47;58.96
10093;BME280;5085;48.092;11.484;2023-03-14T13:30:44;93514.53;;;13.24;59.41
10093;BME280;5085;48.092;11.484;2023-03-14T13:33:19;93530.25;;;12.81;61.46
10093;BME280;5085;48.092;11.484;2023-03-14T13:35:59;93555.16;;;12.27;64.71
10093;BME280;5085;48.092;11.484;2023-03-14T13:38:27;93555.06;;;12.06;68.85
10093;BME280;5085;48.092;11.484;2023-03-14T13:40:55;93563.69;;;11.82;70.78
10093;BME280;5085;48.092;11.484;2023-03-14T13:46:16;93580.88;;;11.34;81.54
10093;BME280;5085;48.092;11.484;2023-03-14T13:48:48;93571.53;;;11.06;85.39
10093;BME280;5085;48.092;11.484;2023-03-14T13:51:16;93586.38;;;10.86;89.36
10093;BME280;5085;48.092;11.484;2023-03-14T13:53:49;93577.66;;;10.71;92.09
10093;BME280;5085;48.092;11.484;2023-03-14T13:56:17;93581.41;;;10.62;92.21
10093;BME280;5085;48.092;11.484;2023-03-14T13:58:43;93589.44;;;10.44;93.96
10093;BME280;5085;48.092;11.484;2023-03-14T14:01:18;93596.13;;;10.16;100.00
10093;BME280;5085;48.092;11.484;2023-03-14T14:03:49;93590.75;;;9.93;100.00
10093;BME280;5085;48.092;11.484;2023-03-14T14:06:38;93606.31;;;9.74;100.00
10093;BME280;5085;48.092;11.484;2023-03-14T14:09:16;93605.72;;;9.55;100.00
10093;BME280;5085;48.092;11.484;2023-03-14T14:11:51;93616.84;;;9.39;100.00